Aérodrome :
LOGIN :

S'inscrire | Disclaimer

   EN    FR    IT 

 










Légende :    VFR   VFR Marginal   IFR   IFR Intensif   IFR Très Intensif
Visi : 
Plafond : 
>= 8 km
>= 3000ft
5 à 8 km
1000 à 3000 ft
1500m à 5 km
500 à 1000 ft
800 à 1500m
200 à 500 ft
< 800m
< 200 ft
Symboles :   Orages  Brouillard  Fortes neiges  Fortes précipitations  Vent > 20 kt
SIGMETs :   Divers  Orages  Givrage  Turbulence  Onde Orograph.  Cendres Volcan.







- Altitude de l'aérodrome : 1106 ft
- Voir les cartes d'approche


LFSO - Nancy / Ochey

DERNIER METAR :
  • 230030Z AUTO 33003KT CAVOK 14/09 Q1025

METARs EXPIRÉS :
  • 230000Z AUTO 33002KT CAVOK 15/09 Q1025
  • 222330Z AUTO 32003KT CAVOK 15/09 Q1025
  • 222300Z AUTO 02002KT CAVOK 16/09 Q1025
  • 222230Z AUTO 07003KT CAVOK 16/09 Q1025
  • 222200Z AUTO VRB02KT CAVOK 17/09 Q1025

TAF TAF LFSO
Valide du 22 à 21h jusqu'au 23 à 21h UTC


222000Z 2221/2321 04005KT CAVOK
Pas de NOTAMs connus pour ce terrain.



MET'MAP, la Météo Aéronautique d'un coup d'oeil ! - Copyright ORBIFLY Décembre 2007 - Disclaimer

ORBIFLY MET'MAP TEAM :

Programmation & Développement : Alexandra Zaïnal
Conception & Développement : Baudouin d'Aumeries
Co-Programmation & Développement : Marc-Olivier Méhu
Soutien technique & logistique : Manuel Goepfert

Contact : metmap@orbifly.com




SOURCES & CREDITS :

   NOAA